Terminal Aerodrome Forecast
Issued by NWS Medford, OR

Home | Current Version | Previous Version | Text Only | Print | Product List | Glossary On
Versions: 1 2 3 4 5 6 7 8 9 10 11 12 13 14 15 16 17 18 19 20 21 22 23 24 25
000
FTUS46 KMFR 220821 AAB
TAFMFR
TAF AMD
KMFR 220821Z 2208/2306 VRB03KT P6SM VCSH BKN005 BKN035 BKN060
      TEMPO 2208/2210 P6SM -SHRA SCT005 BKN035 OVC060
     FM221100 00000KT 4SM -SHRA BKN005 OVC035
     FM221400 28002KT 4SM -SHRASN BKN005 OVC015
     FM221600 27002KT P6SM -SHRA OVC020
     FM222200 30007KT P6SM -SHRA SCT020 BKN035=

USA.gov is the U.S. government's official web portal to all federal, state and local government web resources and services.